Time;durP1;ratioP1;P1;durP2;ratioP2;P2;SDS_P1;SDS_P2;PMS_P1;PMS_P2;Temp;Humidity;BMP_temperature;BMP_pressure;BME280_temperature;BME280_humidity;BME280_pressure;Samples;Min_cycle;Max_cycle;Signal;HPM_P1;HPM_P2
2021/07/26 00:00:48;;;;;;;5.55;4.55;;;20.10;99.90;;;;;;5038932;28;20104;-80
2021/07/26 00:03:15;;;;;;;9.38;4.85;;;20.10;99.90;;;;;;5038066;28;20209;-80
2021/07/26 00:05:42;;;;;;;8.85;5.07;;;20.00;99.90;;;;;;5037582;28;20053;-81
2021/07/26 00:08:08;;;;;;;7.07;4.78;;;19.90;99.90;;;;;;5038072;28;20080;-80
2021/07/26 00:10:37;;;;;;;7.55;4.97;;;19.90;99.90;;;;;;5037097;28;20060;-80
2021/07/26 00:13:04;;;;;;;5.53;4.28;;;19.90;99.90;;;;;;5037118;28;20076;-80
2021/07/26 00:15:30;;;;;;;7.40;4.70;;;19.90;99.90;;;;;;5039668;28;20136;-80
2021/07/26 00:17:57;;;;;;;7.45;4.95;;;19.90;99.90;;;;;;5038957;28;20054;-80
2021/07/26 00:20:24;;;;;;;7.70;4.63;;;19.90;99.90;;;;;;5037352;28;20080;-80
2021/07/26 00:22:51;;;;;;;9.05;4.35;;;19.90;99.90;;;;;;5038020;28;20093;-80
2021/07/26 00:25:18;;;;;;;6.32;4.35;;;19.90;99.90;;;;;;5037524;28;20167;-82
2021/07/26 00:27:47;;;;;;;8.07;4.68;;;19.80;99.90;;;;;;5037672;28;20056;-80
2021/07/26 00:30:14;;;;;;;6.30;4.55;;;19.80;99.90;;;;;;5037014;28;20136;-80
2021/07/26 00:32:41;;;;;;;6.85;4.65;;;19.80;99.90;;;;;;5037679;28;20101;-80
2021/07/26 00:35:08;;;;;;;6.90;4.50;;;19.80;99.90;;;;;;5037305;28;20053;-80
2021/07/26 00:37:35;;;;;;;7.55;4.85;;;19.70;99.90;;;;;;5037604;28;20478;-81
2021/07/26 00:40:07;;;;;;;5.65;4.47;;;19.80;99.90;;;;;;5036760;28;20084;-80
2021/07/26 00:42:35;;;;;;;8.00;5.10;;;19.70;99.90;;;;;;5036661;28;20060;-80
2021/07/26 00:45:04;;;;;;;6.68;4.70;;;19.70;99.90;;;;;;5036309;28;20060;-80
2021/07/26 00:47:31;;;;;;;5.45;4.43;;;19.60;99.90;;;;;;5036115;28;20057;-80
2021/07/26 00:49:59;;;;;;;5.80;4.38;;;19.50;99.90;;;;;;5035495;28;20152;-79
2021/07/26 00:52:27;;;;;;;5.85;4.55;;;19.50;99.90;;;;;;5036110;28;20128;-80
2021/07/26 00:54:54;;;;;;;7.65;5.00;;;19.50;99.90;;;;;;5035387;28;20054;-80
2021/07/26 00:57:22;;;;;;;5.93;4.35;;;19.40;99.90;;;;;;5035994;28;20077;-80
2021/07/26 00:59:50;;;;;;;7.72;5.05;;;19.40;99.90;;;;;;5036372;28;20057;-79
2021/07/26 01:02:18;;;;;;;6.60;4.65;;;19.40;99.90;;;;;;5036858;28;20049;-80
2021/07/26 01:04:45;;;;;;;8.07;4.20;;;19.40;99.90;;;;;;5036892;28;20140;-80
2021/07/26 01:07:12;;;;;;;6.75;4.50;;;19.40;99.90;;;;;;5036936;28;20481;-80
2021/07/26 01:09:39;;;;;;;6.45;4.38;;;19.50;99.90;;;;;;5038982;28;20129;-80
2021/07/26 01:12:06;;;;;;;7.57;4.35;;;19.50;99.90;;;;;;5038156;28;20077;-80
2021/07/26 01:14:34;;;;;;;7.28;4.82;;;19.60;99.90;;;;;;5037618;28;20096;-80
2021/07/26 01:17:01;;;;;;;6.13;4.13;;;19.60;99.90;;;;;;5037720;28;20055;-82
2021/07/26 01:19:29;;;;;;;7.20;4.70;;;19.60;99.90;;;;;;5032427;28;20060;-78
2021/07/26 01:21:58;;;;;;;6.88;4.38;;;19.70;99.90;;;;;;5054839;22;20155;-84
2021/07/26 01:24:24;;;;;;;8.40;4.28;;;19.70;99.90;;;;;;5040664;28;20128;-85
2021/07/26 01:26:51;;;;;;;6.10;4.40;;;19.70;99.90;;;;;;5041577;28;20081;-85
2021/07/26 01:29:21;;;;;;;5.85;4.50;;;19.70;99.90;;;;;;5040877;28;20058;-84
2021/07/26 01:31:48;;;;;;;7.40;4.53;;;19.70;99.90;;;;;;5040818;28;20041;-85
2021/07/26 01:34:15;;;;;;;6.97;4.47;;;19.70;99.90;;;;;;5040967;28;20384;-85
2021/07/26 01:36:42;;;;;;;6.53;4.63;;;19.70;99.90;;;;;;5042208;28;20081;-85
2021/07/26 01:39:10;;;;;;;8.32;4.03;;;19.70;99.90;;;;;;5042209;28;20108;-85
2021/07/26 01:41:37;;;;;;;8.98;4.78;;;19.60;99.90;;;;;;5046943;28;20060;-84
2021/07/26 01:44:06;;;;;;;8.10;4.60;;;19.60;99.90;;;;;;5052238;28;20045;-83
2021/07/26 01:46:54;;;;;;;6.93;4.43;;;19.50;99.90;;;;;;5048154;28;20052;-85
2021/07/26 01:49:45;;;;;;;8.40;4.57;;;19.40;99.90;;;;;;5041635;28;20132;-85
2021/07/26 01:52:13;;;;;;;6.80;4.80;;;19.30;99.90;;;;;;5042484;28;20045;-85
2021/07/26 01:54:41;;;;;;;7.63;4.70;;;19.30;99.90;;;;;;5041215;28;20281;-85
2021/07/26 01:57:11;;;;;;;9.55;4.80;;;19.30;99.90;;;;;;5041111;28;20139;-85
2021/07/26 01:59:38;;;;;;;7.65;4.80;;;19.20;99.90;;;;;;5041396;28;20564;-85
2021/07/26 02:02:05;;;;;;;7.38;4.45;;;19.20;99.90;;;;;;5043483;28;20049;-85
2021/07/26 02:04:33;;;;;;;6.43;4.43;;;19.10;99.90;;;;;;5045248;28;20118;-85
2021/07/26 02:07:00;;;;;;;9.20;4.40;;;19.10;99.90;;;;;;5045154;28;20057;-85
2021/07/26 02:09:27;;;;;;;8.73;4.63;;;19.10;99.90;;;;;;5044837;28;20080;-85
2021/07/26 02:11:55;;;;;;;4.82;4.00;;;19.10;99.90;;;;;;5043847;28;20104;-85
2021/07/26 02:14:22;;;;;;;7.07;4.25;;;19.00;99.90;;;;;;5044545;28;20144;-84
2021/07/26 02:16:52;;;;;;;5.93;4.40;;;19.00;99.90;;;;;;5044406;28;20073;-85
2021/07/26 02:19:19;;;;;;;6.60;4.53;;;19.00;99.90;;;;;;5043481;28;20112;-84
2021/07/26 02:21:46;;;;;;;6.80;4.80;;;19.00;99.90;;;;;;5044047;28;20049;-84
2021/07/26 02:24:13;;;;;;;5.82;4.32;;;19.00;99.90;;;;;;5044846;28;20502;-84
2021/07/26 02:26:40;;;;;;;7.70;4.55;;;19.00;99.90;;;;;;5044396;28;20128;-85
2021/07/26 02:29:08;;;;;;;5.55;4.10;;;19.00;99.90;;;;;;5044446;28;20132;-85
2021/07/26 02:31:35;;;;;;;6.68;4.32;;;19.00;99.90;;;;;;5044393;28;20108;-85
2021/07/26 02:34:04;;;;;;;6.97;4.50;;;18.90;99.90;;;;;;5044061;28;20084;-84
2021/07/26 02:36:31;;;;;;;7.68;4.65;;;18.80;99.90;;;;;;5044513;28;20117;-85
2021/07/26 02:38:58;;;;;;;8.23;4.43;;;18.70;99.90;;;;;;5044172;28;20501;-85
2021/07/26 02:41:25;;;;;;;7.55;4.85;;;18.70;99.90;;;;;;5044603;28;20045;-85
2021/07/26 02:43:52;;;;;;;6.82;4.57;;;18.70;99.90;;;;;;5042934;28;20053;-85
2021/07/26 02:46:20;;;;;;;12.48;4.70;;;18.80;99.90;;;;;;5044681;28;20136;-85
2021/07/26 02:48:47;;;;;;;6.53;4.85;;;18.80;99.90;;;;;;5043769;28;20076;-85
2021/07/26 02:51:14;;;;;;;6.07;4.68;;;18.80;99.90;;;;;;5044255;28;20488;-86
2021/07/26 02:53:42;;;;;;;5.28;4.20;;;18.80;99.90;;;;;;5042446;28;20501;-85
2021/07/26 02:56:10;;;;;;;6.53;4.47;;;18.90;99.90;;;;;;5043155;28;20053;-85
2021/07/26 02:58:37;;;;;;;6.32;4.97;;;18.80;99.90;;;;;;5044407;28;20096;-85
2021/07/26 03:01:04;;;;;;;7.53;4.63;;;18.80;99.90;;;;;;5044008;28;20187;-85
2021/07/26 03:03:32;;;;;;;6.13;4.50;;;18.80;99.90;;;;;;5043759;28;20136;-85
2021/07/26 03:05:59;;;;;;;6.07;4.28;;;18.80;99.90;;;;;;5042801;28;20049;-84
2021/07/26 03:08:29;;;;;;;5.80;4.60;;;18.80;99.90;;;;;;5043459;28;20501;-84
2021/07/26 03:11:00;;;;;;;6.03;4.63;;;18.70;99.90;;;;;;5043380;28;20072;-84
2021/07/26 03:13:27;;;;;;;6.50;4.60;;;18.70;99.90;;;;;;5042813;28;20045;-85
2021/07/26 03:15:54;;;;;;;8.25;4.72;;;18.70;99.90;;;;;;5043640;28;20140;-85
2021/07/26 03:18:21;;;;;;;6.32;4.57;;;18.70;99.90;;;;;;5043859;28;20113;-85
2021/07/26 03:20:49;;;;;;;7.07;5.07;;;18.60;99.90;;;;;;5043193;28;20078;-85
2021/07/26 03:23:16;;;;;;;7.90;5.18;;;18.60;99.90;;;;;;5042864;28;20558;-85
2021/07/26 03:25:44;;;;;;;6.25;5.00;;;18.50;99.90;;;;;;5042467;28;20133;-85
2021/07/26 03:28:11;;;;;;;8.80;5.05;;;18.50;99.90;;;;;;5042316;28;20057;-85
2021/07/26 03:30:38;;;;;;;8.35;5.38;;;18.50;99.90;;;;;;5043435;28;20081;-85
2021/07/26 03:33:06;;;;;;;6.63;5.30;;;18.50;99.90;;;;;;5042698;28;20477;-85
2021/07/26 03:35:33;;;;;;;7.90;5.53;;;18.40;99.90;;;;;;5044169;28;20129;-86
2021/07/26 03:38:02;;;;;;;8.50;5.05;;;18.50;99.90;;;;;;5043345;28;20085;-86
2021/07/26 03:40:29;;;;;;;7.28;5.40;;;18.40;99.90;;;;;;5042787;28;20112;-84
2021/07/26 03:42:56;;;;;;;7.15;5.72;;;18.50;99.90;;;;;;5042219;28;20132;-85
2021/07/26 03:45:23;;;;;;;9.25;5.78;;;18.50;99.90;;;;;;5041593;28;20049;-85
2021/07/26 03:47:51;;;;;;;9.50;6.10;;;18.50;99.90;;;;;;5040351;28;20132;-84
2021/07/26 03:50:19;;;;;;;9.18;6.53;;;18.50;99.90;;;;;;5041368;28;20103;-85
2021/07/26 03:52:47;;;;;;;10.52;6.10;;;18.50;99.90;;;;;;5041049;28;20172;-85
2021/07/26 03:55:18;;;;;;;10.57;5.88;;;18.50;99.90;;;;;;5041886;28;20132;-85
2021/07/26 03:57:46;;;;;;;8.57;5.97;;;18.40;99.90;;;;;;5041989;28;20053;-84
2021/07/26 04:00:15;;;;;;;10.13;5.93;;;18.40;99.90;;;;;;5041965;28;20077;-85
2021/07/26 04:02:43;;;;;;;9.77;6.10;;;18.40;99.90;;;;;;5043292;28;20045;-84
2021/07/26 04:05:18;;;;;;;9.38;5.82;;;18.50;99.90;;;;;;5041979;28;20068;-85
2021/07/26 04:07:47;;;;;;;8.60;6.13;;;18.50;99.90;;;;;;5041607;28;20049;-85
2021/07/26 04:10:16;;;;;;;7.65;5.97;;;18.60;99.90;;;;;;5041487;28;20073;-85
2021/07/26 04:12:47;;;;;;;9.63;5.82;;;18.60;99.90;;;;;;5038993;28;20045;-85
2021/07/26 04:15:14;;;;;;;9.15;6.55;;;18.70;99.90;;;;;;5038123;28;20553;-85
2021/07/26 04:17:41;;;;;;;8.80;6.00;;;18.70;99.90;;;;;;5039326;28;20058;-84
2021/07/26 04:20:08;;;;;;;11.27;6.47;;;18.70;99.90;;;;;;5039217;28;20117;-84
2021/07/26 04:22:35;;;;;;;10.25;5.85;;;18.70;99.90;;;;;;5039101;28;20144;-85
2021/07/26 04:25:02;;;;;;;8.55;6.75;;;18.70;99.90;;;;;;5037861;28;20430;-83
2021/07/26 04:27:32;;;;;;;10.07;6.35;;;18.70;99.90;;;;;;5040211;28;20045;-84
2021/07/26 04:29:59;;;;;;;8.90;6.18;;;18.70;99.90;;;;;;5041346;28;20045;-85
2021/07/26 04:32:26;;;;;;;8.02;5.97;;;18.70;99.90;;;;;;5042341;28;20150;-84
2021/07/26 04:34:53;;;;;;;8.45;6.13;;;18.70;99.90;;;;;;5039321;28;20057;-84
2021/07/26 04:37:20;;;;;;;9.43;6.30;;;18.80;99.90;;;;;;5038375;28;20073;-85
2021/07/26 04:39:47;;;;;;;10.02;6.50;;;18.80;99.90;;;;;;5037313;28;20128;-84
2021/07/26 04:42:14;;;;;;;7.97;6.00;;;18.90;99.90;;;;;;5038094;28;20080;-84
2021/07/26 04:44:42;;;;;;;8.45;6.05;;;18.90;99.90;;;;;;5038056;28;20045;-84
2021/07/26 04:47:09;;;;;;;9.90;5.95;;;18.90;99.90;;;;;;5038159;28;20081;-84
2021/07/26 04:49:36;;;;;;;12.13;6.32;;;18.90;99.90;;;;;;5039809;28;20057;-85
2021/07/26 04:52:04;;;;;;;10.52;6.32;;;19.00;99.90;;;;;;5040266;28;20077;-85
2021/07/26 04:54:31;;;;;;;9.27;6.50;;;19.20;99.90;;;;;;5040357;28;20557;-85
2021/07/26 04:56:57;;;;;;;13.75;6.57;;;19.20;99.90;;;;;;5045014;28;20077;-84
2021/07/26 04:59:24;;;;;;;10.20;6.38;;;19.30;99.90;;;;;;5050096;28;20077;-84
2021/07/26 05:01:52;;;;;;;8.82;6.20;;;19.30;99.90;;;;;;5042376;28;20533;-84
2021/07/26 05:04:19;;;;;;;7.97;5.40;;;19.30;99.90;;;;;;5037216;28;20474;-84
2021/07/26 05:06:46;;;;;;;7.57;5.60;;;19.40;99.90;;;;;;5039598;28;20136;-85
2021/07/26 05:09:13;;;;;;;6.68;5.53;;;19.40;99.90;;;;;;5038720;28;20054;-86
2021/07/26 05:11:43;;;;;;;8.35;5.68;;;19.50;99.90;;;;;;5039198;28;20045;-85
2021/07/26 05:14:10;;;;;;;9.40;6.13;;;19.50;99.90;;;;;;5039646;28;20501;-85
2021/07/26 05:16:37;;;;;;;11.23;6.05;;;19.50;99.90;;;;;;5039855;28;20480;-85
2021/07/26 05:19:05;;;;;;;8.73;5.50;;;19.70;99.90;;;;;;5039928;28;20128;-85
2021/07/26 05:21:32;;;;;;;8.80;5.55;;;19.80;99.90;;;;;;5040010;28;20084;-85
2021/07/26 05:24:00;;;;;;;7.38;5.55;;;19.80;99.90;;;;;;5039852;28;20132;-85
2021/07/26 05:26:27;;;;;;;8.45;5.55;;;20.00;99.90;;;;;;5040590;28;20061;-86
2021/07/26 05:28:54;;;;;;;8.68;5.70;;;20.10;99.90;;;;;;5040447;28;20528;-85
2021/07/26 05:31:21;;;;;;;6.88;5.53;;;20.20;99.90;;;;;;5040008;28;20413;-86
2021/07/26 05:33:48;;;;;;;10.82;5.97;;;20.40;99.90;;;;;;5039577;28;20057;-86
2021/07/26 05:36:16;;;;;;;10.20;5.50;;;20.50;99.90;;;;;;5044271;28;20158;-85
2021/07/26 05:38:43;;;;;;;7.15;5.50;;;20.60;99.90;;;;;;5044981;28;20060;-85
2021/07/26 05:41:10;;;;;;;8.75;5.60;;;20.50;99.90;;;;;;5044954;28;20073;-85
2021/07/26 05:43:37;;;;;;;7.55;5.50;;;20.50;99.90;;;;;;5045456;28;20137;-84
2021/07/26 05:46:04;;;;;;;10.40;6.00;;;20.50;99.90;;;;;;5046378;28;20084;-85
2021/07/26 05:48:30;;;;;;;11.02;6.03;;;20.60;99.90;;;;;;5045417;28;20053;-87
2021/07/26 05:50:57;;;;;;;10.18;6.20;;;20.60;99.90;;;;;;5044325;28;20480;-86
2021/07/26 05:53:25;;;;;;;10.23;5.88;;;20.80;99.90;;;;;;5044271;28;20103;-85
2021/07/26 05:55:52;;;;;;;12.15;5.53;;;20.90;99.90;;;;;;5044568;28;20092;-85
2021/07/26 05:58:19;;;;;;;6.88;5.38;;;21.00;99.90;;;;;;5044835;28;20084;-84
2021/07/26 06:00:57;;;;;;;8.10;5.85;;;21.10;99.90;;;;;;5044511;28;20108;-85
2021/07/26 06:03:24;;;;;;;7.63;5.75;;;21.20;99.90;;;;;;5044929;28;20056;-86
2021/07/26 06:05:51;;;;;;;8.25;5.65;;;21.20;99.90;;;;;;5047451;28;20124;-86
2021/07/26 06:08:18;;;;;;;9.13;6.00;;;21.40;99.90;;;;;;5046810;28;20053;-86
2021/07/26 06:10:46;;;;;;;8.90;6.10;;;21.40;99.90;;;;;;5046996;28;20052;-85
2021/07/26 06:13:13;;;;;;;9.40;5.40;;;21.60;99.90;;;;;;5047575;28;20406;-86
2021/07/26 06:15:40;;;;;;;8.40;5.47;;;21.80;99.90;;;;;;5047264;28;20056;-86
2021/07/26 06:18:07;;;;;;;8.65;5.22;;;22.20;99.90;;;;;;5047663;28;20128;-86
2021/07/26 06:20:34;;;;;;;11.80;5.28;;;22.50;99.90;;;;;;5045665;28;20136;-86
2021/07/26 06:23:01;;;;;;;7.00;4.90;;;23.00;99.90;;;;;;5044078;28;20079;-85
2021/07/26 06:25:28;;;;;;;9.00;5.10;;;23.40;99.90;;;;;;5045193;28;20049;-86
2021/07/26 06:27:56;;;;;;;8.93;5.00;;;23.80;99.90;;;;;;5043745;28;20140;-85
2021/07/26 06:30:22;;;;;;;7.80;4.68;;;24.40;99.90;;;;;;5045494;28;20080;-86
2021/07/26 06:32:53;;;;;;;6.78;4.95;;;25.20;99.90;;;;;;5042757;28;20088;-86
2021/07/26 06:35:20;;;;;;;8.63;4.75;;;26.20;99.90;;;;;;5041054;28;20088;-86
2021/07/26 06:37:47;;;;;;;5.93;4.68;;;27.00;99.90;;;;;;5045099;28;20117;-87
2021/07/26 06:40:15;;;;;;;6.05;4.70;;;27.60;99.90;;;;;;5043575;28;20072;-86
2021/07/26 06:42:42;;;;;;;8.82;4.97;;;27.80;99.90;;;;;;5042276;28;20045;-86
2021/07/26 06:45:11;;;;;;;8.40;4.70;;;27.70;99.90;;;;;;5043201;28;20137;-86
2021/07/26 06:47:38;;;;;;;6.30;4.90;;;27.40;99.90;;;;;;5044349;28;20057;-87
2021/07/26 06:50:06;;;;;;;7.53;4.80;;;27.40;99.90;;;;;;5045315;28;20114;-86
2021/07/26 06:52:32;;;;;;;5.60;4.63;;;27.10;99.90;;;;;;5045916;28;20081;-87
2021/07/26 06:54:59;;;;;;;5.93;4.60;;;27.00;99.90;;;;;;5046065;28;20133;-87
2021/07/26 06:57:26;;;;;;;7.82;4.50;;;27.00;99.90;;;;;;5043460;28;20084;-85
2021/07/26 06:59:53;;;;;;;7.55;5.13;;;26.80;99.90;;;;;;5044395;28;20129;-87
2021/07/26 07:02:21;;;;;;;6.78;4.90;;;26.40;99.90;;;;;;5044567;28;20049;-86
2021/07/26 07:04:48;;;;;;;6.22;4.68;;;26.60;99.90;;;;;;5046160;28;20140;-86
2021/07/26 07:07:15;;;;;;;11.07;5.00;;;26.90;99.90;;;;;;5045146;28;20136;-87
2021/07/26 07:09:42;;;;;;;7.47;4.90;;;27.30;99.90;;;;;;5041228;28;20470;-87
2021/07/26 07:12:09;;;;;;;6.38;4.60;;;27.40;99.90;;;;;;5041909;28;20564;-86
2021/07/26 07:14:36;;;;;;;5.82;4.75;;;27.70;99.90;;;;;;5043629;28;20133;-86
2021/07/26 07:17:03;;;;;;;6.13;4.60;;;27.80;99.90;;;;;;5042434;28;20060;-86
2021/07/26 07:19:31;;;;;;;5.13;4.57;;;28.30;99.90;;;;;;5042097;28;20126;-86
2021/07/26 07:24:39;;;;;;;7.57;5.30;;;28.90;99.90;;;;;;5046216;22;20056;-81
2021/07/26 07:27:06;;;;;;;5.72;4.85;;;28.90;99.90;;;;;;5036326;28;20057;-78
2021/07/26 07:29:33;;;;;;;6.38;4.55;;;29.30;99.90;;;;;;5034526;28;20069;-80
2021/07/26 07:32:02;;;;;;;5.72;4.72;;;29.40;99.90;;;;;;5035941;28;20066;-80
2021/07/26 07:34:30;;;;;;;6.47;4.57;;;29.80;99.90;;;;;;5036117;28;20081;-80
2021/07/26 07:36:58;;;;;;;6.75;4.55;;;30.20;99.90;;;;;;5036301;28;20561;-80
2021/07/26 07:39:27;;;;;;;6.03;4.80;;;30.10;99.90;;;;;;5036501;28;20136;-80
2021/07/26 07:41:54;;;;;;;6.07;4.50;;;29.70;99.90;;;;;;5036608;28;20103;-79
2021/07/26 07:44:21;;;;;;;7.45;4.82;;;29.40;99.90;;;;;;5036136;28;20152;-79
2021/07/26 07:46:48;;;;;;;5.30;4.30;;;28.70;99.90;;;;;;5035697;28;20509;-80
2021/07/26 07:49:15;;;;;;;5.75;4.38;;;28.80;99.90;;;;;;5036498;28;20055;-82
2021/07/26 07:51:44;;;;;;;5.80;4.13;;;28.90;99.90;;;;;;5036150;28;20520;-79
2021/07/26 07:54:12;;;;;;;7.70;4.35;;;28.80;99.90;;;;;;5036790;28;20470;-80
2021/07/26 07:56:39;;;;;;;6.75;4.70;;;29.20;99.90;;;;;;5035958;28;20049;-82
2021/07/26 07:59:07;;;;;;;6.22;4.43;;;29.40;99.90;;;;;;5036852;28;20055;-80
2021/07/26 08:01:34;;;;;;;8.68;4.55;;;29.50;99.90;;;;;;5035366;28;20053;-80
2021/07/26 08:04:00;;;;;;;6.82;4.50;;;29.30;99.90;;;;;;5035458;28;20045;-79
2021/07/26 08:06:27;;;;;;;8.38;4.90;;;28.90;99.90;;;;;;5036059;28;20084;-82
2021/07/26 08:08:55;;;;;;;7.93;4.50;;;28.50;99.90;;;;;;5036742;28;20049;-79
2021/07/26 08:11:22;;;;;;;5.65;4.45;;;28.10;99.90;;;;;;5036400;28;20136;-78
2021/07/26 08:13:49;;;;;;;6.20;4.90;;;27.90;99.90;;;;;;5035496;28;20045;-80
2021/07/26 08:16:16;;;;;;;5.10;4.43;;;27.80;99.90;;;;;;5036888;28;20109;-81
2021/07/26 08:18:43;;;;;;;12.15;4.95;;;27.70;99.90;;;;;;5036495;28;20053;-79
2021/07/26 08:21:10;;;;;;;6.25;4.78;;;27.40;99.90;;;;;;5035677;28;20140;-80
2021/07/26 08:23:37;;;;;;;7.80;5.10;;;26.90;99.90;;;;;;5034654;28;20137;-81
2021/07/26 08:26:05;;;;;;;6.45;4.63;;;26.80;99.90;;;;;;5035304;28;20071;-80
2021/07/26 08:28:32;;;;;;;4.95;4.22;;;26.70;99.90;;;;;;5035957;28;20114;-79
2021/07/26 08:31:01;;;;;;;5.82;4.18;;;26.50;99.90;;;;;;5035252;28;20132;-80
2021/07/26 08:33:28;;;;;;;5.40;4.15;;;26.70;99.90;;;;;;5034940;28;20113;-80
2021/07/26 08:35:57;;;;;;;6.43;4.43;;;27.30;99.90;;;;;;5035614;28;20547;-83
2021/07/26 08:38:24;;;;;;;6.47;4.20;;;28.00;99.90;;;;;;5036076;28;20057;-80
2021/07/26 08:40:53;;;;;;;6.40;3.95;;;28.70;99.90;;;;;;5035401;28;20057;-80
2021/07/26 08:43:23;;;;;;;6.03;3.90;;;29.30;99.90;;;;;;5035909;28;20484;-80
2021/07/26 08:45:50;;;;;;;5.15;4.30;;;29.60;99.90;;;;;;5035568;28;20056;-80
2021/07/26 08:48:18;;;;;;;6.45;4.00;;;30.10;99.90;;;;;;5035440;28;20573;-79
2021/07/26 08:50:49;;;;;;;4.88;3.80;;;30.20;99.90;;;;;;5034684;28;20057;-79
2021/07/26 08:53:19;;;;;;;6.18;3.63;;;29.80;99.90;;;;;;5034816;28;20073;-80
2021/07/26 08:55:49;;;;;;;3.85;3.45;;;29.90;99.90;;;;;;5035090;28;20051;-79
2021/07/26 08:58:16;;;;;;;6.30;3.72;;;30.20;99.90;;;;;;5034191;28;20140;-83
2021/07/26 09:00:45;;;;;;;4.45;3.72;;;30.50;99.90;;;;;;5034150;28;20049;-78
2021/07/26 09:03:12;;;;;;;3.58;3.28;;;30.30;99.90;;;;;;5034608;28;20045;-80
2021/07/26 09:05:39;;;;;;;6.80;3.90;;;30.00;99.90;;;;;;5034726;28;20051;-80
2021/07/26 09:08:06;;;;;;;4.55;3.85;;;29.80;99.90;;;;;;5034785;28;20058;-80
2021/07/26 09:10:35;;;;;;;4.65;3.88;;;29.40;99.90;;;;;;5034699;28;20136;-80
2021/07/26 09:13:03;;;;;;;4.80;3.90;;;29.20;99.90;;;;;;5033389;28;20087;-79
2021/07/26 09:15:31;;;;;;;7.45;4.32;;;28.70;99.90;;;;;;5035751;28;20180;-80
2021/07/26 09:18:02;;;;;;;6.72;3.90;;;27.70;99.90;;;;;;5035175;28;20077;-78
2021/07/26 09:20:30;;;;;;;6.25;3.53;;;27.20;99.90;;;;;;5034757;28;20049;-80
2021/07/26 09:22:58;;;;;;;5.93;3.80;;;26.70;99.90;;;;;;5033742;28;20061;-78
2021/07/26 09:25:27;;;;;;;6.72;3.97;;;26.50;99.90;;;;;;5034722;28;20046;-79
2021/07/26 09:28:05;;;;;;;4.65;3.72;;;26.20;99.90;;;;;;5034849;28;20136;-79
2021/07/26 09:30:38;;;;;;;4.88;3.80;;;26.40;99.90;;;;;;5034955;28;20084;-79
2021/07/26 09:33:14;;;;;;;;;;;26.60;99.90;;;;;;5034754;28;20530;-80
2021/07/26 09:35:42;;;;;;;4.70;3.83;;;26.80;99.90;;;;;;5034707;28;20349;-79
2021/07/26 09:38:11;;;;;;;4.75;4.20;;;26.80;99.90;;;;;;5034448;28;20083;-78
2021/07/26 09:40:38;;;;;;;5.50;3.70;;;26.70;99.90;;;;;;5035174;28;20141;-80
2021/07/26 09:43:17;;;;;;;4.40;4.00;;;26.70;99.90;;;;;;5034948;28;20081;-80
2021/07/26 09:45:44;;;;;;;4.57;3.83;;;26.70;99.90;;;;;;5034784;28;20049;-80
2021/07/26 09:48:15;;;;;;;5.40;3.80;;;26.90;99.90;;;;;;5036018;28;20144;-79
2021/07/26 09:50:43;;;;;;;6.38;4.22;;;27.10;99.90;;;;;;5035889;28;20059;-80
2021/07/26 09:53:15;;;;;;;9.35;4.10;;;27.20;99.90;;;;;;5035988;28;20063;-81
2021/07/26 09:55:43;;;;;;;4.40;3.65;;;26.90;99.90;;;;;;5035447;28;20050;-80
2021/07/26 09:58:12;;;;;;;6.28;3.83;;;26.90;99.90;;;;;;5035033;28;20053;-80
2021/07/26 10:00:41;;;;;;;4.05;3.65;;;26.80;99.90;;;;;;5035619;28;20510;-83
2021/07/26 10:03:10;;;;;;;4.68;3.58;;;27.00;99.90;;;;;;5033809;28;20059;-80
2021/07/26 10:05:41;;;;;;;5.93;3.80;;;27.30;99.90;;;;;;5035094;28;20050;-82
2021/07/26 10:08:09;;;;;;;6.07;3.90;;;27.30;99.90;;;;;;5030936;28;20050;-80
2021/07/26 10:10:37;;;;;;;3.92;3.53;;;27.30;99.90;;;;;;5023014;28;20077;-79
2021/07/26 10:13:05;;;;;;;5.25;3.60;;;27.10;99.90;;;;;;5023936;28;20080;-80
2021/07/26 10:15:33;;;;;;;10.18;3.58;;;26.90;99.90;;;;;;5022787;28;20110;-81
2021/07/26 10:18:00;;;;;;;4.30;3.70;;;26.60;99.90;;;;;;5022123;28;20076;-81
2021/07/26 10:20:29;;;;;;;8.38;3.60;;;26.60;99.90;;;;;;5024244;28;20048;-78
2021/07/26 10:23:05;;;;;;;5.45;3.47;;;26.70;99.90;;;;;;5023393;28;20046;-79
2021/07/26 10:25:37;;;;;;;8.00;3.70;;;26.90;99.90;;;;;;5018767;28;20061;-80
2021/07/26 10:28:09;;;;;;;4.28;3.65;;;27.10;99.90;;;;;;5019089;28;20351;-80
2021/07/26 10:30:38;;;;;;;4.72;3.72;;;27.30;99.90;;;;;;5018837;28;20071;-79
2021/07/26 10:33:05;;;;;;;4.95;4.07;;;27.40;99.90;;;;;;5018439;28;20054;-82
2021/07/26 10:35:40;;;;;;;4.55;3.95;;;27.50;99.90;;;;;;5018562;28;20114;-82
2021/07/26 10:38:10;;;;;;;5.55;3.85;;;27.30;99.90;;;;;;5019700;28;20078;-80
2021/07/26 10:40:39;;;;;;;4.40;3.70;;;27.50;99.90;;;;;;5020078;28;20049;-80
2021/07/26 10:43:06;;;;;;;6.85;3.90;;;27.80;99.90;;;;;;5018669;28;20057;-80
2021/07/26 10:45:55;;;;;;;7.55;3.85;;;28.10;99.90;;;;;;5018777;28;20084;-82
2021/07/26 10:48:38;;;;;;;5.65;3.72;;;28.20;99.90;;;;;;5018467;28;20096;-80
2021/07/26 10:51:38;;;;;;;7.22;4.30;;;28.00;99.90;;;;;;5018964;28;20054;-80
2021/07/26 10:54:08;;;;;;;4.55;3.58;;;27.70;99.90;;;;;;5018310;28;20084;-80
2021/07/26 10:57:07;;;;;;;5.70;3.80;;;27.60;99.90;;;;;;5042170;28;20049;-80
2021/07/26 11:00:07;;;;;;;5.28;3.72;;;27.60;99.90;;;;;;5040918;28;20053;-82
2021/07/26 11:02:36;;;;;;;4.30;3.90;;;27.60;99.90;;;;;;5039861;28;20049;-81
2021/07/26 11:05:33;;;;;;;4.65;4.10;;;27.50;99.90;;;;;;5041226;28;20063;-80
2021/07/26 11:08:26;;;;;;;7.88;4.55;;;27.40;99.90;;;;;;5041371;28;20049;-80
2021/07/26 11:10:58;;;;;;;7.85;4.40;;;27.20;99.90;;;;;;5033346;28;20049;-80
2021/07/26 11:14:09;;;;;;;8.70;4.43;;;27.00;99.90;;;;;;5048052;28;20085;-79
2021/07/26 11:17:06;;;;;;;6.18;4.20;;;26.70;99.90;;;;;;5043424;28;20145;-80
2021/07/26 11:19:38;;;;;;;5.15;4.10;;;26.70;99.90;;;;;;5005431;28;20430;-81
2021/07/26 11:22:07;;;;;;;6.35;4.90;;;26.90;99.90;;;;;;5044152;28;20136;-81
2021/07/26 11:24:44;;;;;;;7.18;4.65;;;27.00;99.90;;;;;;5050013;28;20053;-80
2021/07/26 11:27:14;;;;;;;4.97;4.30;;;27.20;99.90;;;;;;5054475;28;20136;-82
2021/07/26 11:29:45;;;;;;;6.88;4.65;;;27.20;99.90;;;;;;5044391;28;20064;-81
2021/07/26 11:32:16;;;;;;;6.60;4.13;;;27.60;99.90;;;;;;5053185;28;20155;-81
2021/07/26 11:34:44;;;;;;;6.90;4.43;;;28.00;99.90;;;;;;5041306;28;20053;-80
2021/07/26 11:37:13;;;;;;;5.32;4.32;;;28.30;99.90;;;;;;5048795;28;20056;-84
2021/07/26 11:39:51;;;;;;;5.93;4.03;;;28.60;99.90;;;;;;5058571;28;20052;-80
2021/07/26 11:42:21;;;;;;;7.07;4.40;;;28.80;99.90;;;;;;5059390;28;20092;-82
2021/07/26 11:44:50;;;;;;;6.20;4.70;;;29.00;99.90;;;;;;5059312;28;20076;-81
2021/07/26 11:47:19;;;;;;;5.40;4.28;;;28.70;99.90;;;;;;5059039;28;20077;-81
2021/07/26 11:49:47;;;;;;;6.32;4.50;;;28.60;99.90;;;;;;5059316;28;20095;-83
2021/07/26 11:52:14;;;;;;;7.30;4.93;;;28.40;99.90;;;;;;5058902;28;20093;-83
2021/07/26 11:54:41;;;;;;;5.30;4.07;;;28.20;99.90;;;;;;5058521;28;20573;-80
2021/07/26 11:57:09;;;;;;;5.30;4.18;;;27.90;99.90;;;;;;5058768;28;20048;-84
2021/07/26 11:59:40;;;;;;;4.60;3.70;;;27.90;99.90;;;;;;5058420;28;20139;-82
2021/07/26 12:02:09;;;;;;;4.20;3.80;;;28.10;99.90;;;;;;5058577;28;20110;-81
2021/07/26 12:04:37;;;;;;;4.00;3.45;;;28.50;99.90;;;;;;5058182;28;20132;-82
2021/07/26 12:07:05;;;;;;;5.20;3.40;;;28.60;99.90;;;;;;5058634;28;20131;-79
2021/07/26 12:09:33;;;;;;;4.63;3.70;;;28.80;99.90;;;;;;5057768;28;20095;-80
2021/07/26 12:12:11;;;;;;;4.22;3.60;;;28.80;99.90;;;;;;5059517;28;20132;-81
2021/07/26 12:14:40;;;;;;;4.40;3.60;;;29.00;99.90;;;;;;5059226;28;20123;-81
2021/07/26 12:17:09;;;;;;;5.03;3.58;;;29.20;99.90;;;;;;5060065;28;20079;-81
2021/07/26 12:19:37;;;;;;;4.43;3.47;;;29.40;99.90;;;;;;5060321;28;20081;-80
2021/07/26 12:22:19;;;;;;;7.47;4.65;;;29.40;99.90;;;;;;5060009;28;20491;-80
2021/07/26 12:24:47;;;;;;;9.27;4.72;;;29.30;99.90;;;;;;5059523;28;20045;-80
2021/07/26 12:27:37;;;;;;;5.72;4.60;;;28.80;99.90;;;;;;5059372;28;20040;-81
2021/07/26 12:30:10;;;;;;;8.30;4.50;;;28.30;99.90;;;;;;5059068;28;20083;-81
2021/07/26 12:32:50;;;;;;;6.60;4.68;;;28.00;99.90;;;;;;5058904;28;20084;-81
2021/07/26 12:35:26;;;;;;;9.32;5.00;;;28.10;99.90;;;;;;5059280;28;20108;-81
2021/07/26 12:38:16;;;;;;;8.40;4.78;;;28.10;99.90;;;;;;5059604;28;20053;-80
2021/07/26 12:40:44;;;;;;;5.25;4.68;;;28.20;99.90;;;;;;5058689;28;20053;-81
2021/07/26 12:43:12;;;;;;;12.95;5.05;;;28.30;99.90;;;;;;5058434;28;20079;-81
2021/07/26 12:45:42;;;;;;;7.70;5.10;;;28.60;99.90;;;;;;5057785;28;20077;-81
2021/07/26 12:48:14;;;;;;;6.35;5.00;;;28.90;99.90;;;;;;5058329;28;20053;-81
2021/07/26 12:50:42;;;;;;;4.88;4.38;;;28.80;99.90;;;;;;5058225;28;20055;-82
2021/07/26 12:53:09;;;;;;;8.80;4.50;;;29.00;99.90;;;;;;5057795;28;20140;-84
2021/07/26 12:55:36;;;;;;;8.38;4.38;;;28.90;99.90;;;;;;5057668;28;20136;-81
2021/07/26 12:58:03;;;;;;;6.07;4.30;;;28.90;99.90;;;;;;5057788;28;20053;-83